Time;durP1;ratioP1;P1;durP2;ratioP2;P2;SDS_P1;SDS_P2;PMS_P1;PMS_P2;Temp;Humidity;BMP_temperature;BMP_pressure;BME280_temperature;BME280_humidity;BME280_pressure;Samples;Min_cycle;Max_cycle;Signal;HPM_P1;HPM_P2
2021/03/28 00:00:50;;;;;;;5.97;3.30;;;;;;;5.28;56.11;97754.97;5114896;28;20035;-73
2021/03/28 00:03:24;;;;;;;4.20;2.15;;;;;;;5.23;55.79;97746.81;5114315;28;20039;-73
2021/03/28 00:05:50;;;;;;;5.00;2.50;;;;;;;5.21;55.56;97747.94;5115174;28;20035;-73
2021/03/28 00:08:24;;;;;;;5.05;2.50;;;;;;;5.18;56.11;97756.03;5096608;28;20419;-73
2021/03/28 00:10:53;;;;;;;4.82;2.45;;;;;;;5.15;55.75;97751.97;5114317;28;20043;-73
2021/03/28 00:13:28;;;;;;;5.25;2.45;;;;;;;5.12;56.17;97746.22;5114862;28;20050;-73
2021/03/28 00:15:57;;;;;;;5.63;2.45;;;;;;;5.07;55.81;97750.09;5112966;28;20051;-73
2021/03/28 00:18:28;;;;;;;5.57;2.20;;;;;;;5.02;55.80;97751.53;5114122;28;20396;-73
2021/03/28 00:21:17;;;;;;;4.45;2.63;;;;;;;4.95;56.61;97755.69;5114119;28;20040;-73
2021/03/28 00:23:56;;;;;;;5.18;2.72;;;;;;;4.91;56.53;97757.75;5114428;28;20043;-73
2021/03/28 00:26:30;;;;;;;5.47;2.55;;;;;;;4.84;56.29;97757.53;5114273;28;20043;-73
2021/03/28 00:29:23;;;;;;;5.07;2.40;;;;;;;4.80;56.82;97758.00;5114129;28;20039;-73
2021/03/28 00:32:00;;;;;;;5.00;2.45;;;;;;;4.77;56.82;97753.91;5113702;28;20047;-73
2021/03/28 00:34:42;;;;;;;6.32;2.70;;;;;;;4.71;56.81;97744.13;5114284;28;20407;-73
2021/03/28 00:37:08;;;;;;;5.65;3.03;;;;;;;4.68;56.50;97747.84;5114258;28;20057;-73
2021/03/28 00:39:46;;;;;;;4.88;2.17;;;;;;;4.65;56.63;97745.53;5114404;28;20024;-73
2021/03/28 00:42:33;;;;;;;6.55;2.38;;;;;;;4.61;57.12;97745.97;5114457;28;20415;-73
2021/03/28 00:45:10;;;;;;;3.55;2.15;;;;;;;4.57;57.19;97750.63;5113801;28;20035;-73
2021/03/28 00:47:38;;;;;;;5.30;2.17;;;;;;;4.55;56.54;97738.75;5113814;28;20043;-73
2021/03/28 00:50:19;;;;;;;5.03;2.28;;;;;;;4.50;56.95;97747.00;5113586;28;20035;-73
2021/03/28 00:53:29;;;;;;;2.83;2.15;;;;;;;4.42;57.54;97752.13;5113342;28;20039;-73
2021/03/28 00:56:02;;;;;;;3.42;2.13;;;;;;;4.36;57.25;97750.09;5098319;28;20046;-73
2021/03/28 00:58:41;;;;;;;3.33;2.20;;;;;;;4.31;57.77;97755.75;5113819;28;20036;-73
2021/03/28 01:01:33;;;;;;;4.35;2.60;;;;;;;4.29;57.72;97759.44;5113626;28;20049;-73
2021/03/28 01:04:38;;;;;;;4.03;2.20;;;;;;;4.25;58.12;97757.13;5094288;28;20046;-72
2021/03/28 01:07:17;;;;;;;3.58;2.40;;;;;;;4.24;57.83;97741.69;5107278;28;20046;-73
2021/03/28 01:10:31;;;;;;;6.85;2.92;;;;;;;4.22;58.02;97746.19;5113437;28;20055;-73
2021/03/28 01:13:25;;;;;;;4.10;2.13;;;;;;;4.19;57.60;97739.53;5032303;28;20081;-73
2021/03/28 01:16:01;;;;;;;4.07;2.45;;;;;;;4.15;57.86;97734.78;5110119;28;20042;-73
2021/03/28 01:18:43;;;;;;;3.13;2.10;;;;;;;4.11;58.31;97729.03;5103008;28;20041;-73
2021/03/28 01:21:16;;;;;;;4.10;2.38;;;;;;;4.06;57.49;97728.69;5113141;28;20389;-73
2021/03/28 01:23:46;;;;;;;4.38;2.13;;;;;;;4.01;57.41;97731.72;5113228;28;20050;-72
2021/03/28 01:26:49;;;;;;;3.65;2.28;;;;;;;3.97;58.56;97739.91;5113178;28;20046;-73
2021/03/28 01:29:30;;;;;;;4.72;2.20;;;;;;;3.93;58.18;97726.44;5108184;28;20040;-73
2021/03/28 01:32:02;;;;;;;3.58;1.88;;;;;;;3.89;57.86;97726.88;5112623;28;20047;-73
2021/03/28 01:34:35;;;;;;;3.70;2.03;;;;;;;3.88;58.24;97728.63;5113345;28;20047;-73
2021/03/28 01:37:19;;;;;;;7.15;2.33;;;;;;;3.88;59.22;97731.22;5105431;28;20408;-73
2021/03/28 01:40:01;;;;;;;4.23;2.50;;;;;;;3.89;58.76;97726.88;5112377;28;20046;-73
2021/03/28 01:42:55;;;;;;;5.07;2.10;;;;;;;3.88;59.07;97727.81;5113287;28;20024;-73
2021/03/28 01:45:48;;;;;;;5.97;2.30;;;;;;;3.88;59.28;97730.41;5113079;28;20027;-73
2021/03/28 01:48:33;;;;;;;4.28;2.42;;;;;;;3.86;58.18;97722.75;5112646;28;20039;-73
2021/03/28 01:51:10;;;;;;;4.68;2.15;;;;;;;3.83;58.70;97717.88;5112613;28;20023;-73
2021/03/28 01:53:55;;;;;;;4.88;2.08;;;;;;;3.81;59.48;97725.78;5093600;28;20047;-74
2021/03/28 01:56:46;;;;;;;7.05;2.60;;;;;;;3.81;59.52;97725.78;5112831;28;20031;-73
2021/03/28 01:59:27;;;;;;;4.45;2.42;;;;;;;3.79;58.44;97714.72;5113335;28;20046;-73
2021/03/28 02:01:56;;;;;;;3.78;2.05;;;;;;;3.78;58.88;97728.69;5112878;28;20046;-73
2021/03/28 02:04:41;;;;;;;4.15;2.13;;;;;;;3.74;59.71;97729.94;5094645;28;20035;-73
2021/03/28 02:07:21;;;;;;;6.43;2.30;;;;;;;3.71;59.23;97719.81;5110644;28;20383;-73
2021/03/28 02:09:47;;;;;;;2.83;1.85;;;;;;;3.68;58.89;97729.69;5113306;28;20105;-73
2021/03/28 02:12:20;;;;;;;4.20;1.95;;;;;;;3.65;59.38;97722.97;5113141;28;20028;-73
2021/03/28 02:14:55;;;;;;;5.75;2.00;;;;;;;3.64;59.54;97726.56;5112512;28;20487;-73
2021/03/28 02:17:38;;;;;;;4.38;1.98;;;;;;;3.60;59.81;97722.59;5113007;28;20040;-73
2021/03/28 02:20:07;;;;;;;4.47;2.20;;;;;;;3.57;59.46;97726.31;5113413;28;20036;-73
2021/03/28 02:22:50;;;;;;;5.93;1.98;;;;;;;3.50;59.69;97724.41;5113046;28;20040;-73
2021/03/28 02:25:37;;;;;;;2.80;2.00;;;;;;;3.48;59.72;97726.31;5108360;28;20491;-73
2021/03/28 02:28:15;;;;;;;5.05;1.80;;;;;;;3.45;59.73;97720.47;5105804;28;20039;-73
2021/03/28 02:30:42;;;;;;;5.07;2.10;;;;;;;3.42;59.29;97723.34;5112906;28;20471;-73
2021/03/28 02:33:17;;;;;;;4.78;2.20;;;;;;;3.40;59.62;97717.47;5112767;28;20051;-73
2021/03/28 02:35:57;;;;;;;3.58;1.73;;;;;;;3.37;60.06;97725.53;5112590;28;20517;-73
2021/03/28 02:38:32;;;;;;;5.53;2.00;;;;;;;3.33;59.65;97726.75;5112295;28;20506;-73
2021/03/28 02:41:46;;;;;;;5.00;2.03;;;;;;;3.30;61.00;97729.66;5114801;28;20806;-73
2021/03/28 02:44:18;;;;;;;2.95;2.03;;;;;;;3.30;60.21;97721.03;5079133;28;20156;-73
2021/03/28 02:46:47;;;;;;;3.47;1.98;;;;;;;3.31;59.93;97725.28;5116229;28;20046;-73
2021/03/28 02:49:41;;;;;;;4.22;2.10;;;;;;;3.28;60.70;97733.34;5115885;28;20038;-73
2021/03/28 02:52:27;;;;;;;6.22;2.42;;;;;;;3.27;60.66;97726.50;5116146;28;20490;-73
2021/03/28 02:55:12;;;;;;;5.00;2.17;;;;;;;3.25;59.81;97729.25;5115694;28;20044;-73
2021/03/28 02:57:43;;;;;;;;;;;;;;;3.22;61.15;97740.72;5116262;28;20472;-73
2021/03/28 03:00:23;;;;;;;4.85;2.40;;;;;;;3.18;60.37;97726.38;5115655;28;19922;-73
2021/03/28 03:03:22;;;;;;;3.95;2.35;;;;;;;3.16;60.99;97738.69;5114712;28;20048;-73
2021/03/28 03:06:18;;;;;;;4.45;2.33;;;;;;;3.10;60.66;97731.44;5115941;28;20035;-73
2021/03/28 03:09:03;;;;;;;5.40;2.42;;;;;;;3.07;61.26;97730.91;5115710;28;20129;-73
2021/03/28 03:11:52;;;;;;;4.07;2.35;;;;;;;3.07;61.24;97728.31;5115029;28;20043;-73
2021/03/28 03:14:39;;;;;;;4.43;2.35;;;;;;;3.04;60.55;97722.47;5116061;28;20032;-73
2021/03/28 03:17:53;;;;;;;4.35;2.55;;;;;;;3.02;61.33;97729.56;5104771;28;20038;-73
2021/03/28 03:20:25;;;;;;;4.43;2.90;;;;;;;3.01;61.07;97721.94;5110201;28;20047;-73
2021/03/28 03:23:00;;;;;;;3.85;2.10;;;;;;;3.02;60.67;97720.97;5115335;28;20052;-73
2021/03/28 03:26:11;;;;;;;4.10;2.35;;;;;;;3.03;61.56;97728.59;5103865;28;20035;-73
2021/03/28 03:28:59;;;;;;;4.85;2.30;;;;;;;3.01;61.06;97720.16;5059495;28;20503;-74
2021/03/28 03:32:11;;;;;;;5.50;2.63;;;;;;;2.98;61.64;97725.63;5114097;28;20035;-73
2021/03/28 03:35:19;;;;;;;4.22;2.20;;;;;;;2.95;61.29;97725.06;5112387;28;20032;-73
2021/03/28 03:38:06;;;;;;;1.92;1.50;;;;;;;2.92;61.16;97731.34;5114924;28;20044;-73
2021/03/28 03:40:37;;;;;;;5.45;2.83;;;;;;;2.89;60.88;97728.22;5115482;28;20383;-73
2021/03/28 03:43:12;;;;;;;4.18;2.50;;;;;;;2.88;61.49;97730.00;5115817;28;20062;-73
2021/03/28 03:46:02;;;;;;;5.22;2.10;;;;;;;2.88;61.58;97730.00;5103780;28;20035;-73
2021/03/28 03:48:52;;;;;;;3.33;2.33;;;;;;;2.87;61.67;97730.13;5109524;28;20039;-73
2021/03/28 03:51:30;;;;;;;5.82;2.25;;;;;;;2.83;61.37;97733.00;5115067;28;20058;-73
2021/03/28 03:54:03;;;;;;;5.40;2.60;;;;;;;2.82;61.60;97739.13;5096500;28;20039;-73
2021/03/28 03:56:53;;;;;;;7.03;2.50;;;;;;;2.82;62.31;97746.88;5115044;28;20061;-73
2021/03/28 03:59:40;;;;;;;6.03;2.38;;;;;;;2.78;61.33;97737.75;5112396;28;20032;-73
2021/03/28 04:02:26;;;;;;;5.90;2.33;;;;;;;2.74;61.97;97741.56;5114631;28;20035;-73
2021/03/28 04:05:08;;;;;;;3.40;2.13;;;;;;;2.70;61.41;97734.22;5114351;28;20059;-73
2021/03/28 04:07:51;;;;;;;5.53;2.47;;;;;;;2.63;61.79;97729.56;5115374;28;20035;-73
2021/03/28 04:10:46;;;;;;;3.80;2.05;;;;;;;2.58;62.29;97738.69;5114940;28;20057;-73
2021/03/28 04:13:15;;;;;;;3.22;2.08;;;;;;;2.54;61.74;97743.34;5092680;28;20047;-73
2021/03/28 04:15:56;;;;;;;4.07;2.30;;;;;;;2.51;61.94;97746.19;5114453;28;20040;-73
2021/03/28 04:18:44;;;;;;;3.22;2.10;;;;;;;2.50;62.56;97747.16;5113841;28;20051;-73
2021/03/28 04:21:32;;;;;;;6.10;2.35;;;;;;;2.50;62.55;97743.72;5114218;28;20035;-73
2021/03/28 04:24:12;;;;;;;5.10;2.83;;;;;;;2.46;62.86;97750.97;5113614;28;20042;-73
2021/03/28 04:26:59;;;;;;;4.38;2.35;;;;;;;2.42;61.93;97747.00;5114927;28;20035;-73
2021/03/28 04:29:25;;;;;;;3.63;2.50;;;;;;;2.37;61.84;97747.41;5109816;28;20125;-73
2021/03/28 04:32:29;;;;;;;7.03;2.92;;;;;;;2.39;62.98;97752.44;5113028;28;20075;-73
2021/03/28 04:35:05;;;;;;;4.27;2.60;;;;;;;2.35;62.02;97757.09;5113522;28;20054;-73
2021/03/28 04:37:43;;;;;;;6.72;2.58;;;;;;;2.33;62.97;97755.56;5114051;28;20039;-73
2021/03/28 04:40:31;;;;;;;3.45;2.28;;;;;;;2.27;62.33;97745.75;5114253;28;20050;-73
2021/03/28 04:43:09;;;;;;;3.10;2.13;;;;;;;2.23;62.22;97740.03;5113450;28;20048;-73
2021/03/28 04:45:56;;;;;;;6.45;2.67;;;;;;;2.18;62.30;97740.44;5113878;28;20036;-73
2021/03/28 04:48:51;;;;;;;4.57;2.80;;;;;;;2.16;62.93;97746.69;5113193;28;20043;-73
2021/03/28 04:51:37;;;;;;;5.70;2.60;;;;;;;2.13;63.26;97742.59;5114289;28;20039;-73
2021/03/28 04:55:08;;;;;;;4.72;2.47;;;;;;;2.13;63.68;97757.31;5113302;28;20043;-73
2021/03/28 04:57:34;;;;;;;2.47;2.22;;;;;;;2.12;62.72;97745.31;4979564;28;20046;-73
2021/03/28 05:00:37;;;;;;;4.78;2.65;;;;;;;2.12;63.85;97756.50;5092394;28;20043;-73
2021/03/28 05:03:28;;;;;;;4.32;2.65;;;;;;;2.12;63.20;97746.13;5112997;28;20040;-73
2021/03/28 05:06:12;;;;;;;6.65;2.60;;;;;;;2.09;64.19;97748.16;5107902;28;20035;-73
2021/03/28 05:08:59;;;;;;;5.60;2.55;;;;;;;2.09;62.92;97745.56;5113037;28;20043;-74
2021/03/28 05:11:47;;;;;;;6.18;2.72;;;;;;;2.11;64.08;97759.19;5113938;28;20057;-73
2021/03/28 05:14:40;;;;;;;6.25;2.58;;;;;;;2.12;64.02;97753.91;5113458;28;20046;-73
2021/03/28 05:17:25;;;;;;;4.22;2.55;;;;;;;2.12;63.07;97759.06;5109693;28;20042;-73
2021/03/28 05:19:59;;;;;;;10.43;2.60;;;;;;;2.11;63.53;97757.44;5113259;28;20070;-73
2021/03/28 05:22:31;;;;;;;;;;;;;;;2.05;64.42;97760.53;5113778;28;20377;-73
2021/03/28 05:25:06;;;;;;;4.78;2.10;;;;;;;2.01;63.74;97761.75;5112961;28;19912;-74
2021/03/28 05:27:41;;;;;;;4.82;2.55;;;;;;;2.02;63.21;97763.41;5113465;28;20047;-73
2021/03/28 05:30:51;;;;;;;3.88;2.25;;;;;;;2.03;64.25;97775.38;5109592;28;20034;-73
2021/03/28 05:34:13;;;;;;;3.75;2.42;;;;;;;2.06;64.26;97761.34;5111024;28;20055;-73
2021/03/28 05:36:39;;;;;;;6.18;2.60;;;;;;;2.08;63.41;97765.47;5067484;28;20043;-73
2021/03/28 05:39:43;;;;;;;4.97;2.50;;;;;;;2.12;63.74;97772.03;5113261;28;20050;-73
2021/03/28 05:42:24;;;;;;;6.97;2.72;;;;;;;2.06;63.66;97762.19;5101885;28;20043;-73
2021/03/28 05:45:21;;;;;;;3.95;2.47;;;;;;;2.14;64.23;97770.13;5112912;28;20040;-73
2021/03/28 05:47:59;;;;;;;5.32;2.72;;;;;;;2.30;64.15;97772.19;5094525;28;20031;-73
2021/03/28 05:50:32;;;;;;;6.18;2.95;;;;;;;2.45;63.58;97770.03;5113518;28;20039;-73
2021/03/28 05:53:35;;;;;;;5.03;3.13;;;;;;;2.57;63.54;97781.91;5113140;28;20036;-73
2021/03/28 05:56:39;;;;;;;3.67;2.15;;;;;;;2.67;63.49;97779.34;5112551;28;20039;-73
2021/03/28 05:59:33;;;;;;;4.53;2.65;;;;;;;2.79;63.21;97775.69;5106511;28;20044;-73
2021/03/28 06:02:38;;;;;;;6.88;4.32;;;;;;;2.85;62.82;97787.25;5112735;28;20043;-73
2021/03/28 06:05:22;;;;;;;;;;;;;;;2.92;62.91;97787.53;5112285;28;20048;-73
2021/03/28 06:08:19;;;;;;;4.50;2.87;;;;;;;3.03;62.86;97795.19;5112735;28;20390;-73
2021/03/28 06:11:17;;;;;;;4.78;2.70;;;;;;;3.21;62.62;97795.28;5094752;28;20281;-73
2021/03/28 06:14:14;;;;;;;5.22;2.80;;;;;;;3.50;62.22;97802.22;5113175;28;20046;-73
2021/03/28 06:17:07;;;;;;;5.65;2.67;;;;;;;3.98;61.75;97796.88;5113528;28;20044;-73
2021/03/28 06:19:52;;;;;;;2.78;2.53;;;;;;;4.99;60.11;97775.22;5116694;28;20395;-73
2021/03/28 06:22:56;;;;;;;4.25;2.58;;;;;;;5.67;58.74;97774.59;5116921;28;20388;-73
2021/03/28 06:26:00;;;;;;;7.88;2.70;;;;;;;6.42;56.98;97768.75;5116581;28;20023;-73
2021/03/28 06:28:44;;;;;;;3.63;2.50;;;;;;;7.08;59.42;97800.97;5114596;28;20051;-73
2021/03/28 06:31:30;;;;;;;;;;;;;;;7.61;53.43;97747.41;5116154;28;20413;-73
2021/03/28 06:34:03;;;;;;;4.13;3.03;;;;;;;8.04;54.71;97773.25;5116165;28;19935;-73
2021/03/28 06:36:56;;;;;;;4.15;2.83;;;;;;;8.31;52.88;97751.09;5116749;28;20039;-73
2021/03/28 06:39:47;;;;;;;4.13;2.83;;;;;;;8.68;52.98;97758.25;5111116;28;20468;-73
2021/03/28 06:42:49;;;;;;;7.10;2.58;;;;;;;9.07;51.34;97739.03;5110144;28;20040;-73
2021/03/28 06:46:00;;;;;;;5.53;2.58;;;;;;;9.42;50.15;97715.00;5087227;28;20051;-73
2021/03/28 06:48:55;;;;;;;6.75;3.05;;;;;;;9.67;48.12;97699.84;5075658;28;20035;-74
2021/03/28 06:51:33;;;;;;;5.10;2.53;;;;;;;9.93;48.41;97717.69;5111367;28;20043;-73
2021/03/28 06:54:18;;;;;;;4.07;2.42;;;;;;;9.98;48.08;97712.75;5116063;28;20032;-74
2021/03/28 06:57:04;;;;;;;4.18;2.25;;;;;;;10.17;47.82;97713.97;5115878;28;20046;-74
2021/03/28 06:59:30;;;;;;;3.92;2.33;;;;;;;10.14;50.41;97744.00;5116295;28;20031;-73
2021/03/28 07:02:17;;;;;;;5.40;2.15;;;;;;;10.15;46.01;97708.91;5115311;28;20044;-73
2021/03/28 07:05:02;;;;;;;2.58;1.98;;;;;;;10.02;45.11;97695.66;5113293;28;20051;-73
2021/03/28 07:07:49;;;;;;;4.13;2.40;;;;;;;9.87;46.80;97740.22;5097586;28;20032;-73
2021/03/28 07:10:33;;;;;;;4.43;2.25;;;;;;;9.77;45.71;97744.09;5116040;28;20040;-73
2021/03/28 07:13:02;;;;;;;2.85;2.10;;;;;;;9.86;47.35;97737.78;5116221;28;20047;-74
2021/03/28 07:16:05;;;;;;;3.17;2.10;;;;;;;9.83;45.09;97722.44;5115269;28;20039;-73
2021/03/28 07:18:59;;;;;;;4.70;2.80;;;;;;;9.55;46.69;97718.63;5109216;28;20034;-73
2021/03/28 07:21:58;;;;;;;3.60;2.58;;;;;;;9.47;46.18;97725.72;5115402;28;20487;-73
2021/03/28 07:24:50;;;;;;;6.57;2.33;;;;;;;9.21;47.58;97745.28;5114954;28;20040;-73
2021/03/28 07:27:42;;;;;;;5.38;2.20;;;;;;;9.18;47.07;97742.22;5112993;28;20066;-73
2021/03/28 07:30:37;;;;;;;6.00;2.55;;;;;;;9.07;46.80;97739.03;5115570;28;20035;-73
2021/03/28 07:33:18;;;;;;;;;;;;;;;9.21;45.54;97737.44;5114399;28;20044;-74
2021/03/28 07:35:55;;;;;;;4.05;1.90;;;;;;;9.40;47.78;97782.44;5115246;28;20398;-73
2021/03/28 07:38:27;;;;;;;3.53;1.88;;;;;;;9.61;47.06;97786.97;5115056;28;20046;-73
2021/03/28 07:41:41;;;;;;;3.47;1.98;;;;;;;9.41;45.11;97757.84;5114479;28;20046;-73
2021/03/28 07:44:45;;;;;;;7.32;2.30;;;;;;;8.88;46.16;97768.25;5094465;28;20043;-74
2021/03/28 07:47:20;;;;;;;2.95;1.90;;;;;;;8.67;47.21;97795.88;5116341;27;20387;-73
2021/03/28 07:50:16;;;;;;;3.13;2.05;;;;;;;9.06;46.97;97794.16;5115316;28;20035;-74
2021/03/28 07:52:54;;;;;;;4.60;2.38;;;;;;;9.55;46.08;97786.72;5115126;28;20117;-73
2021/03/28 07:55:26;;;;;;;4.40;2.40;;;;;;;9.98;45.52;97780.06;5114942;28;20039;-73
2021/03/28 07:58:04;;;;;;;2.40;1.77;;;;;;;10.42;45.37;97787.91;5114626;28;20483;-74
2021/03/28 08:00:43;;;;;;;5.05;1.92;;;;;;;10.82;43.88;97774.44;5115025;28;20035;-73
2021/03/28 08:03:47;;;;;;;3.25;1.75;;;;;;;10.79;42.79;97777.41;5095857;28;20114;-73
2021/03/28 08:06:34;;;;;;;3.30;2.30;;;;;;;10.52;43.66;97779.75;5109128;28;20027;-73
2021/03/28 08:09:16;;;;;;;3.65;2.38;;;;;;;10.07;44.34;97789.47;5113874;28;20110;-74
2021/03/28 08:11:54;;;;;;;4.15;2.25;;;;;;;9.72;44.81;97797.00;5114977;28;20407;-74
2021/03/28 08:14:39;;;;;;;4.60;2.40;;;;;;;9.44;45.60;97823.78;5114244;28;20035;-74
2021/03/28 08:17:15;;;;;;;4.10;2.28;;;;;;;9.43;46.12;97829.19;5109255;28;20035;-74
2021/03/28 08:20:09;;;;;;;3.78;2.30;;;;;;;9.47;46.12;97835.72;5114948;28;20036;-73
2021/03/28 08:23:06;;;;;;;3.85;1.90;;;;;;;9.44;45.74;97834.25;5114832;28;20032;-73
2021/03/28 08:25:41;;;;;;;3.05;1.80;;;;;;;9.41;46.00;97829.41;5114582;28;20043;-74
2021/03/28 08:28:32;;;;;;;7.00;4.30;;;;;;;9.63;45.99;97826.91;5115330;28;20468;-73
2021/03/28 08:31:10;;;;;;;4.35;2.30;;;;;;;9.96;45.82;97827.41;5114207;28;20035;-74
2021/03/28 08:33:45;;;;;;;5.93;2.00;;;;;;;10.31;45.15;97828.53;5107840;28;20055;-74
2021/03/28 08:36:27;;;;;;;5.45;2.30;;;;;;;10.60;44.48;97826.06;5111975;28;20043;-74
2021/03/28 08:39:16;;;;;;;3.92;1.95;;;;;;;11.04;43.44;97825.13;5113815;28;20047;-74
2021/03/28 08:41:57;;;;;;;4.25;2.30;;;;;;;11.60;42.97;97819.97;5113479;28;20407;-73
2021/03/28 08:45:01;;;;;;;4.35;2.00;;;;;;;11.81;41.62;97821.75;5114093;28;20050;-73
2021/03/28 08:47:58;;;;;;;3.47;2.00;;;;;;;11.73;42.01;97816.63;5111520;28;20036;-74
2021/03/28 08:50:48;;;;;;;5.28;2.53;;;;;;;11.77;41.97;97823.94;5107310;28;20047;-74
2021/03/28 08:53:35;;;;;;;4.22;2.17;;;;;;;11.85;41.95;97828.25;5107203;28;20043;-75
2021/03/28 08:56:55;;;;;;;3.55;1.83;;;;;;;11.97;42.37;97837.25;5113586;28;20047;-74
2021/03/28 08:59:36;;;;;;;4.20;2.17;;;;;;;12.33;42.30;97838.88;5038410;28;20149;-74
2021/03/28 09:02:05;;;;;;;3.22;2.00;;;;;;;12.46;41.30;97824.19;5041102;28;20041;-74
2021/03/28 09:04:51;;;;;;;6.57;2.15;;;;;;;12.47;40.58;97823.16;5084760;28;20051;-74
2021/03/28 09:07:47;;;;;;;5.97;2.40;;;;;;;12.69;41.32;97827.31;5110894;28;20460;-74
2021/03/28 09:10:32;;;;;;;3.25;2.10;;;;;;;13.04;41.57;97816.69;5113458;28;20410;-74
2021/03/28 09:13:37;;;;;;;3.95;2.65;;;;;;;13.17;38.98;97811.41;5113525;28;20044;-74
2021/03/28 09:16:38;;;;;;;3.88;1.90;;;;;;;13.11;39.72;97814.84;5113175;28;20043;-74
2021/03/28 09:19:25;;;;;;;3.58;1.65;;;;;;;13.18;40.36;97817.50;5113715;28;20109;-74
2021/03/28 09:22:21;;;;;;;4.30;2.25;;;;;;;13.25;39.40;97826.22;5112324;28;20047;-74
2021/03/28 09:24:58;;;;;;;4.10;2.25;;;;;;;13.38;39.40;97822.84;5113076;28;20471;-74
2021/03/28 09:27:42;;;;;;;2.55;1.90;;;;;;;13.33;38.61;97817.34;5113088;28;20031;-74
2021/03/28 09:30:21;;;;;;;4.68;3.42;;;;;;;13.10;40.30;97825.56;5113508;28;20038;-74
2021/03/28 09:33:15;;;;;;;4.57;1.83;;;;;;;12.79;40.31;97821.66;5112841;28;20055;-74
2021/03/28 09:36:10;;;;;;;4.28;2.47;;;;;;;12.84;40.13;97821.88;5112912;28;20040;-74
2021/03/28 09:38:47;;;;;;;4.22;1.85;;;;;;;12.74;40.03;97822.25;5092651;28;20427;-74
2021/03/28 09:41:26;;;;;;;7.55;2.00;;;;;;;12.64;40.65;97828.88;5112525;28;20050;-74
2021/03/28 09:43:58;;;;;;;5.38;2.47;;;;;;;12.72;41.14;97819.00;5112965;28;20040;-74
2021/03/28 09:47:00;;;;;;;5.32;2.03;;;;;;;12.76;40.98;97822.06;5112980;28;20059;-74
2021/03/28 09:49:53;;;;;;;4.45;2.67;;;;;;;12.91;39.66;97812.16;5109991;28;20028;-74
2021/03/28 09:52:28;;;;;;;3.15;1.77;;;;;;;12.90;40.30;97820.28;5117819;28;20043;-74
2021/03/28 09:55:29;;;;;;;3.72;2.20;;;;;;;12.64;39.94;97807.84;5116922;28;20038;-74
2021/03/28 09:58:36;;;;;;;5.07;2.40;;;;;;;12.49;39.57;97802.72;5117315;28;20035;-74
2021/03/28 10:01:22;;;;;;;4.85;2.10;;;;;;;12.41;39.58;97798.47;5116772;28;20046;-74
2021/03/28 10:04:32;;;;;;;6.22;2.15;;;;;;;12.47;38.24;97781.84;5107791;28;20054;-74
2021/03/28 10:07:03;;;;;;;3.17;1.90;;;;;;;12.69;38.89;97793.09;5108528;28;20039;-74
2021/03/28 10:10:04;;;;;;;3.70;1.83;;;;;;;12.66;38.52;97790.84;5116509;28;20047;-74
2021/03/28 10:12:47;;;;;;;2.42;1.63;;;;;;;12.90;37.72;97786.84;5087308;28;20408;-74
2021/03/28 10:15:22;;;;;;;5.90;1.70;;;;;;;13.16;36.63;97783.44;5109536;28;20035;-74
2021/03/28 10:18:29;;;;;;;3.20;1.80;;;;;;;13.23;34.07;97782.63;5116203;28;20043;-74
2021/03/28 10:21:07;;;;;;;3.75;1.92;;;;;;;13.17;37.82;97800.09;5116703;28;20036;-74
2021/03/28 10:23:52;;;;;;;4.18;1.67;;;;;;;13.25;35.56;97785.88;5098986;28;20040;-74
2021/03/28 10:26:18;;;;;;;4.32;2.08;;;;;;;13.33;37.37;97783.09;5113171;28;20027;-74
2021/03/28 10:29:03;;;;;;;3.40;1.38;;;;;;;13.33;36.77;97785.72;5116228;28;20047;-74
2021/03/28 10:31:44;;;;;;;5.45;1.55;;;;;;;13.20;35.40;97789.13;5116711;28;20062;-74
2021/03/28 10:34:44;;;;;;;3.38;1.52;;;;;;;13.19;35.32;97792.78;5109443;28;20040;-74
2021/03/28 10:37:44;;;;;;;1.98;1.40;;;;;;;13.46;35.57;97782.28;5108943;28;20066;-74
2021/03/28 10:40:22;;;;;;;4.43;1.70;;;;;;;13.83;36.15;97782.66;5071968;28;20047;-74
2021/03/28 10:43:18;;;;;;;4.65;1.48;;;;;;;14.01;34.12;97770.44;5097921;28;20040;-74
2021/03/28 10:45:59;;;;;;;2.25;1.70;;;;;;;14.23;32.98;97769.38;5116095;28;20040;-74
2021/03/28 10:49:04;;;;;;;3.50;1.38;;;;;;;14.28;33.63;97777.44;5115701;28;20051;-74
2021/03/28 10:52:00;;;;;;;3.88;1.83;;;;;;;14.24;33.55;97779.72;5082646;28;20403;-74
2021/03/28 10:55:05;;;;;;;2.80;1.63;;;;;;;14.57;33.00;97769.06;5114680;28;20039;-74
2021/03/28 10:58:03;;;;;;;2.92;1.50;;;;;;;14.95;33.78;97764.75;5073909;28;20399;-74
2021/03/28 11:01:01;;;;;;;4.50;1.50;;;;;;;15.27;32.11;97759.47;5110452;28;20039;-75
2021/03/28 11:03:51;;;;;;;3.80;2.03;;;;;;;15.06;32.07;97765.94;5110110;28;20034;-74
2021/03/28 11:06:41;;;;;;;2.92;2.13;;;;;;;14.79;33.36;97758.97;5116062;28;20395;-74
2021/03/28 11:09:16;;;;;;;2.55;1.35;;;;;;;14.93;33.55;97762.34;5065279;28;20063;-74
2021/03/28 11:12:00;;;;;;;6.68;5.70;;;;;;;14.73;31.18;97751.91;5115482;28;20031;-74
2021/03/28 11:14:29;;;;;;;4.40;1.95;;;;;;;14.72;32.06;97747.66;5115309;28;20387;-74
2021/03/28 11:17:20;;;;;;;7.55;5.70;;;;;;;14.77;32.48;97745.16;5115179;28;20468;-74
2021/03/28 11:20:40;;;;;;;4.05;3.13;;;;;;;14.99;31.75;97743.00;5115601;28;20050;-74
2021/03/28 11:23:23;;;;;;;3.28;1.73;;;;;;;15.21;31.79;97740.00;5029747;28;20029;-74
2021/03/28 11:26:43;;;;;;;4.03;2.28;;;;;;;15.02;30.78;97723.28;5113451;28;20039;-74
2021/03/28 11:29:23;;;;;;;4.40;1.70;;;;;;;14.88;31.38;97734.94;4994668;28;20038;-74
2021/03/28 11:31:55;;;;;;;7.00;2.72;;;;;;;14.99;31.94;97726.34;5098576;28;20074;-74
2021/03/28 11:34:26;;;;;;;2.60;1.60;;;;;;;15.18;32.28;97721.91;5115732;28;20032;-74
2021/03/28 11:36:58;;;;;;;3.80;1.92;;;;;;;15.44;32.15;97728.84;5115944;28;20031;-74
2021/03/28 11:39:33;;;;;;;4.65;2.78;;;;;;;15.41;31.38;97722.16;5115036;28;20038;-74
2021/03/28 11:42:15;;;;;;;3.28;1.50;;;;;;;15.65;31.83;97729.47;5103751;28;20040;-74
2021/03/28 11:45:04;;;;;;;4.50;2.35;;;;;;;15.49;31.37;97720.25;5115400;28;20035;-73
2021/03/28 11:47:52;;;;;;;4.32;1.92;;;;;;;15.37;31.57;97728.88;5114351;28;20063;-74
2021/03/28 11:50:32;;;;;;;2.60;1.60;;;;;;;15.41;31.19;97722.16;5107779;28;20071;-74
2021/03/28 11:53:07;;;;;;;4.80;2.90;;;;;;;15.55;31.51;97729.94;5115027;28;20043;-74
2021/03/28 11:55:55;;;;;;;4.47;1.60;;;;;;;15.82;31.03;97704.06;5114800;28;20039;-74
2021/03/28 11:59:00;;;;;;;3.13;1.70;;;;;;;16.07;30.27;97706.63;5104444;28;20089;-74
2021/03/28 12:02:03;;;;;;;3.35;1.52;;;;;;;16.14;30.28;97695.97;5114178;28;20036;-74
2021/03/28 12:04:31;;;;;;;2.67;1.60;;;;;;;16.21;30.88;97691.38;5113741;28;20066;-74
2021/03/28 12:07:27;;;;;;;5.85;3.08;;;;;;;16.22;29.48;97687.72;5114870;28;20044;-73
2021/03/28 12:10:14;;;;;;;5.60;3.35;;;;;;;15.71;30.10;97680.97;5106578;28;20046;-74
2021/03/28 12:12:40;;;;;;;3.97;2.20;;;;;;;15.60;31.11;97683.31;5100308;28;20400;-74
2021/03/28 12:15:46;;;;;;;4.88;2.47;;;;;;;15.67;31.40;97679.81;5114814;28;20042;-74
2021/03/28 12:21:03;;;;;;;2.22;1.50;;;;;;;16.28;30.91;97655.06;5100904;28;20035;-74
2021/03/28 12:23:34;;;;;;;3.20;1.77;;;;;;;16.44;31.95;97667.69;5114657;28;20459;-74
2021/03/28 12:26:14;;;;;;;4.43;2.50;;;;;;;16.70;30.87;97662.22;5114137;28;20044;-74
2021/03/28 12:28:46;;;;;;;3.00;1.67;;;;;;;16.83;30.50;97657.53;5114019;28;20051;-75
2021/03/28 12:31:50;;;;;;;2.72;2.13;;;;;;;16.89;30.19;97666.44;5114089;28;20039;-74
2021/03/28 12:34:36;;;;;;;2.95;1.90;;;;;;;16.64;29.62;97669.22;5049341;28;20048;-75
2021/03/28 12:37:06;;;;;;;3.60;1.63;;;;;;;16.58;30.08;97664.84;5113158;28;20415;-74
2021/03/28 12:39:37;;;;;;;6.25;4.45;;;;;;;16.50;29.86;97663.31;5095717;28;20032;-74
2021/03/28 12:42:03;;;;;;;6.28;4.78;;;;;;;16.35;30.03;97661.06;5113698;28;20031;-75
2021/03/28 12:44:32;;;;;;;2.63;1.60;;;;;;;16.36;30.13;97659.25;5114203;28;20467;-74
2021/03/28 12:47:06;;;;;;;4.38;2.70;;;;;;;16.42;30.21;97656.50;5113414;28;20472;-74
2021/03/28 12:49:49;;;;;;;3.95;1.48;;;;;;;16.77;30.05;97655.78;5114066;28;20372;-74
2021/03/28 12:52:38;;;;;;;2.72;1.23;;;;;;;17.07;29.46;97646.16;5102119;28;20040;-74
2021/03/28 12:55:28;;;;;;;2.88;1.40;;;;;;;17.36;29.19;97639.13;5113088;28;20036;-74
2021/03/28 12:57:57;;;;;;;3.28;1.23;;;;;;;17.54;29.46;97633.69;5113878;28;20063;-74
2021/03/28 13:00:45;;;;;;;2.58;1.20;;;;;;;17.57;26.81;97625.25;5113556;28;20383;-74
2021/03/28 13:03:24;;;;;;;5.47;1.80;;;;;;;17.10;27.38;97627.97;5094791;28;20039;-74
2021/03/28 13:06:16;;;;;;;3.03;1.17;;;;;;;17.04;29.26;97631.53;5112884;28;20031;-75
2021/03/28 13:08:46;;;;;;;1.80;1.40;;;;;;;17.12;29.18;97615.28;5072692;28;20054;-76